Emigrant, Montana
Current Conditions -  °F | °C
As of 8:20 AM on Sunday 21 Dec 2014 (Local Time) from KLVM Reporting Station
Overcast Overcast  
Wind Chill: 29°   Ceiling: 7500
Heat Index: 40°   Visibility: 10mi
Dew Point: 35°   Wind: 26mph
Humidity: 83%   Direction: 220°SW
Pressure: 29.45"   Gusts: 39mph
Location:  45.34°N, 110.76°W
Report Text: KLVM 211520Z AUTO 22023G34KT 10SM SCT027 OVC075 04/02 A2945 RMK AO2 PK WND 21038/1504 RAE15 P0001 T00440017 $
Loading
Personal Weather Stations






























Interactive Weather Map New forecast layout! Learn more

10-Day Weather Forecast

Advertisements
Track Severe Weather on mobile